| time (UTC) | temp F | wind direction | speed knots | gust knots | rain 1hr in | rain 24hr in | rain mn in | humidity % | barometer mb |
| 20260506221807 | 58 | 63 | 1.7 | 3.5 | 0.00 | 0.00 | 0.00 | 78 | 1034.7 |
| 20260506221304 | 58 | 280 | 2.6 | 6.1 | 0.00 | 0.00 | 0.00 | 76 | 1034.8 |
| 20260506220802 | 58 | 153 | 3.5 | 8.7 | 0.00 | 0.00 | 0.00 | 76 | 1034.8 |
| 20260506220301 | 58 | 295 | 5.2 | 7.8 | 0.00 | 0.00 | 0.00 | 78 | 1034.8 |
| 20260506215758 | 58 | 283 | 6.1 | 7.0 | 0.00 | 0.00 | 0.00 | 76 | 1034.6 |
| 20260506215254 | 59 | 140 | 3.5 | 4.3 | 0.00 | 0.00 | 0.00 | 78 | 1034.6 |
| 20260506214750 | 59 | 189 | 0.9 | 8.7 | 0.00 | 0.00 | 0.00 | 77 | 1034.7 |
| 20260506214248 | 59 | 154 | 2.6 | 9.6 | 0.00 | 0.00 | 0.00 | 77 | 1034.7 |
| 20260506213746 | 59 | 206 | 1.7 | 7.0 | 0.00 | 0.00 | 0.00 | 77 | 1034.7 |
| 20260506213243 | 59 | 224 | 1.7 | 5.2 | 0.00 | 0.00 | 0.00 | 75 | 1034.6 |
| 20260506212740 | 59 | 282 | 1.7 | 5.2 | 0.00 | 0.00 | 0.00 | 78 | 1034.7 |
| 20260506212236 | 60 | 210 | 2.6 | 4.3 | 0.00 | 0.00 | 0.00 | 74 | 1034.6 |
| 20260506211731 | 59 | 197 | 1.7 | 7.0 | 0.00 | 0.00 | 0.00 | 76 | 1034.6 |
| 20260506211228 | 59 | 310 | 0.0 | 4.3 | 0.00 | 0.00 | 0.00 | 77 | 1034.7 |
| 20260506210725 | 59 | 19 | 0.0 | 3.5 | 0.00 | 0.00 | 0.00 | 76 | 1034.6 |
| 20260506210222 | 60 | 234 | 2.6 | 7.8 | 0.00 | 0.00 | 0.00 | 76 | 1034.8 |
| 20260506205719 | 60 | 229 | 1.7 | 2.6 | 0.00 | 0.00 | 0.00 | 77 | 1034.6 |
| 20260506205214 | 59 | 248 | 1.7 | 3.5 | 0.00 | 0.00 | 0.00 | 80 | 1034.6 |
| 20260506204711 | 58 | 290 | 0.9 | 3.5 | 0.00 | 0.00 | 0.00 | 80 | 1034.6 |
| 20260506204208 | 57 | 190 | 0.0 | 2.6 | 0.00 | 0.00 | 0.00 | 80 | 1034.5 |
| 20260506203707 | 57 | 301 | 0.0 | 4.3 | 0.00 | 0.00 | 0.00 | 82 | 1034.8 |
| 20260506203203 | 57 | 172 | 3.5 | 6.1 | 0.00 | 0.00 | 0.00 | 82 | 1034.7 |
| 20260506202701 | 57 | 172 | 0.0 | 3.5 | 0.00 | 0.00 | 0.00 | 82 | 1034.6 |
| 20260506202156 | 57 | 105 | 1.7 | 3.5 | 0.00 | 0.00 | 0.00 | 85 | 1034.7 |
| 20260506201654 | 56 | 185 | 1.7 | 3.5 | 0.00 | 0.00 | 0.00 | 86 | 1034.6 |
| 20260506201150 | 56 | 151 | 2.6 | 6.1 | 0.00 | 0.00 | 0.00 | 86 | 1034.6 |
| 20260506200647 | 55 | 133 | 7.0 | 7.0 | 0.00 | 0.00 | 0.00 | 87 | 1034.7 |
| 20260506200144 | 55 | 287 | 0.0 | 5.2 | 0.00 | 0.00 | 0.00 | 87 | 1034.7 |
| 20260506195641 | 55 | 198 | 0.0 | 5.2 | 0.00 | 0.00 | 0.00 | 88 | 1034.9 |
| 20260506195137 | 55 | 241 | 2.6 | 5.2 | 0.00 | 0.00 | 0.00 | 87 | 1034.8 |
| 20260506194634 | 55 | 133 | 7.8 | 8.7 | 0.00 | 0.00 | 0.00 | 87 | 1034.5 |
| 20260506194130 | 56 | 278 | 0.0 | 2.6 | 0.00 | 0.00 | 0.00 | 87 | 1034.5 |
| 20260506193628 | 56 | 66 | 0.0 | 2.6 | 0.00 | 0.00 | 0.00 | 87 | 1034.6 |
| 20260506193125 | 56 | 133 | 5.2 | 6.1 | 0.00 | 0.00 | 0.00 | 86 | 1034.4 |
| 20260506192622 | 56 | 170 | 1.7 | 3.5 | 0.00 | 0.00 | 0.00 | 88 | 1034.3 |
| 20260506192118 | 56 | 204 | 1.7 | 5.2 | 0.00 | 0.00 | 0.00 | 89 | 1034.4 |
| 20260506191615 | 55 | 47 | 0.0 | 3.5 | 0.00 | 0.00 | 0.00 | 89 | 1034.4 |
| 20260506191111 | 55 | 206 | 1.7 | 4.3 | 0.00 | 0.00 | 0.00 | 89 | 1034.6 |
| 20260506190609 | 55 | 111 | 3.5 | 5.2 | 0.00 | 0.00 | 0.00 | 90 | 1034.4 |
| 20260506190105 | 55 | 222 | 1.7 | 4.3 | 0.00 | 0.00 | 0.00 | 88 | 1034.4 |
| 20260506185602 | 55 | 159 | 0.0 | 3.5 | 0.00 | 0.00 | 0.00 | 89 | 1034.6 |
| 20260506185059 | 55 | 110 | 1.7 | 1.7 | 0.00 | 0.00 | 0.00 | 89 | 1034.2 |
| 20260506184556 | 55 | 279 | 0.0 | 3.5 | 0.00 | 0.00 | 0.00 | 89 | 1034.4 |
| 20260506184053 | 55 | 189 | 0.0 | 2.6 | 0.00 | 0.00 | 0.00 | 90 | 1034.3 |
| 20260506183549 | 55 | 153 | 1.7 | 5.2 | 0.00 | 0.00 | 0.00 | 91 | 1034.3 |
| 20260506183046 | 55 | 273 | 0.9 | 2.6 | 0.00 | 0.00 | 0.00 | 91 | 1034.2 |
| 20260506182543 | 55 | 102 | 3.5 | 5.2 | 0.00 | 0.00 | 0.00 | 91 | 1033.9 |
| 20260506182040 | 55 | 188 | 0.9 | 1.7 | 0.00 | 0.00 | 0.00 | 91 | 1034.4 |
| 20260506181538 | 55 | 218 | 0.0 | 1.7 | 0.00 | 0.00 | 0.00 | 90 | 1034.4 |
| 20260506181035 | 55 | 131 | 2.6 | 7.0 | 0.00 | 0.00 | 0.00 | 91 | 1034.2 |
| 20260506180531 | 55 | 7 | 0.0 | 1.7 | 0.00 | 0.00 | 0.00 | 91 | 1034.0 |
| 20260506180028 | 55 | 325 | 2.6 | 2.6 | 0.00 | 0.00 | 0.00 | 91 | 1034.3 |
| 20260506175525 | 55 | 94 | 1.7 | 3.5 | 0.00 | 0.00 | 0.00 | 91 | 1034.1 |
| 20260506175021 | 55 | 108 | 3.5 | 5.2 | 0.00 | 0.00 | 0.00 | 91 | 1034.0 |
| 20260506174520 | 55 | 61 | 0.0 | 0.0 | 0.00 | 0.00 | 0.00 | 93 | 1033.9 |
| 20260506174015 | 55 | 97 | 1.7 | 5.2 | 0.00 | 0.00 | 0.00 | 93 | 1033.8 |
| 20260506173513 | 55 | 115 | 3.5 | 3.5 | 0.00 | 0.00 | 0.00 | 93 | 1033.9 |
| 20260506173010 | 55 | 129 | 1.7 | 2.6 | 0.00 | 0.00 | 0.00 | 93 | 1034.0 |
| 20260506172508 | 55 | 178 | 2.6 | 3.5 | 0.00 | 0.00 | 0.00 | 92 | 1034.1 |
| 20260506172003 | 55 | 111 | 2.6 | 3.5 | 0.00 | 0.00 | 0.00 | 92 | 1034.1 |
| 20260506171502 | 55 | 85 | 1.7 | 2.6 | 0.00 | 0.00 | 0.00 | 93 | 1034.2 |
| 20260506170959 | 54 | 116 | 1.7 | 2.6 | 0.00 | 0.00 | 0.00 | 92 | 1034.1 |
| 20260506170455 | 54 | 124 | 0.9 | 3.5 | 0.00 | 0.00 | 0.00 | 93 | 1034.1 |
| 20260506165954 | 54 | 77 | 1.7 | 3.5 | 0.00 | 0.00 | 0.00 | 93 | 1034.2 |
| 20260506165452 | 54 | 98 | 1.7 | 1.7 | 0.00 | 0.00 | 0.00 | 93 | 1034.2 |
| 20260506164947 | 54 | 94 | 0.9 | 1.7 | 0.00 | 0.00 | 0.00 | 94 | 1034.1 |
| 20260506164444 | 54 | 257 | 1.7 | 2.6 | 0.00 | 0.00 | 0.00 | 93 | 1034.0 |
| 20260506163942 | 54 | 138 | 0.9 | 2.6 | 0.00 | 0.00 | 0.00 | 93 | 1034.1 |
| 20260506163437 | 54 | 69 | 0.0 | 1.7 | 0.00 | 0.00 | 0.00 | 93 | 1033.9 |
| 20260506162932 | 54 | 129 | 1.7 | 3.5 | 0.00 | 0.00 | 0.00 | 94 | 1033.9 |
| 20260506162430 | 54 | 103 | 2.6 | 3.5 | 0.00 | 0.00 | 0.00 | 95 | 1033.9 |
| 20260506161927 | 54 | 43 | 0.9 | 1.7 | 0.00 | 0.00 | 0.00 | 95 | 1033.8 |
| 20260506161426 | 53 | 83 | 1.7 | 2.6 | 0.00 | 0.00 | 0.00 | 95 | 1033.8 |
| 20260506160923 | 53 | 115 | 0.9 | 1.7 | 0.00 | 0.00 | 0.00 | 96 | 1033.8 |
| 20260506160420 | 53 | 130 | 3.5 | 5.2 | 0.00 | 0.00 | 0.00 | 96 | 1033.7 |
| 20260506155917 | 53 | 60 | 2.6 | 3.5 | 0.00 | 0.00 | 0.00 | 97 | 1033.8 |
| 20260506155414 | 53 | 49 | 2.6 | 2.6 | 0.00 | 0.00 | 0.00 | 97 | 1033.5 |
| 20260506153531 | 53 | 125 | 2.6 | 2.6 | 0.00 | 0.00 | 0.00 | 97 | 1033.6 |
| 20260506153028 | 53 | 80 | 1.7 | 3.5 | 0.00 | 0.00 | 0.00 | 98 | 1033.6 |
| 20260506152525 | 53 | 92 | 1.7 | 2.6 | 0.00 | 0.00 | 0.00 | 97 | 1033.9 |
| 20260506152023 | 52 | 94 | 2.6 | 2.6 | 0.00 | 0.00 | 0.00 | 97 | 1033.9 |
| 20260506151520 | 52 | 67 | 1.7 | 2.6 | 0.00 | 0.00 | 0.00 | 98 | 1034.0 |
| 20260506151018 | 52 | 105 | 1.7 | 2.6 | 0.00 | 0.00 | 0.00 | 98 | 1033.8 |
| 20260506150514 | 52 | 7 | 0.0 | 2.6 | 0.00 | 0.00 | 0.00 | 98 | 1033.9 |
| 20260506150011 | 52 | 83 | 1.7 | 2.6 | 0.00 | 0.00 | 0.00 | 98 | 1033.7 |
| 20260506145507 | 52 | 122 | 1.7 | 4.3 | 0.00 | 0.00 | 0.00 | 98 | 1033.8 |
| 20260506145005 | 52 | 53 | 1.7 | 2.6 | 0.00 | 0.00 | 0.00 | 98 | 1033.4 |
| 20260506144502 | 52 | 105 | 2.6 | 3.5 | 0.00 | 0.00 | 0.00 | 99 | 1033.6 |
| 20260506143959 | 52 | 83 | 1.7 | 3.5 | 0.00 | 0.00 | 0.00 | 99 | 1033.5 |
| 20260506143456 | 52 | 66 | 1.7 | 2.6 | 0.00 | 0.00 | 0.00 | 99 | 1033.5 |
| 20260506142955 | 52 | 92 | 1.7 | 2.6 | 0.00 | 0.00 | 0.00 | 99 | 1033.7 |
| 20260506142452 | 52 | 88 | 1.7 | 2.6 | 0.00 | 0.00 | 0.00 | 99 | 1033.5 |
| 20260506141950 | 52 | 86 | 1.7 | 3.5 | 0.00 | 0.00 | 0.00 | 99 | 1033.3 |
| 20260506141448 | 52 | 92 | 0.0 | 2.6 | 0.00 | 0.00 | 0.00 | 99 | 1033.4 |
| 20260506140946 | 52 | 72 | 2.6 | 2.6 | 0.00 | 0.00 | 0.00 | 99 | 1033.4 |
| 20260506140443 | 52 | 98 | 1.7 | 2.6 | 0.00 | 0.00 | 0.00 | 99 | 1033.4 |
| 20260506135939 | 52 | 96 | 1.7 | 2.6 | 0.00 | 0.00 | 0.00 | 99 | 1033.4 |
| 20260506135437 | 52 | 86 | 0.9 | 1.7 | 0.00 | 0.00 | 0.00 | 99 | 1033.2 |
| 20260506134932 | 52 | 92 | 1.7 | 1.7 | 0.00 | 0.00 | 0.00 | 99 | 1033.5 |
| 20260506134429 | 52 | 96 | 1.7 | 2.6 | 0.00 | 0.00 | 0.00 | 99 | 1033.4 |
| 20260506133926 | 52 | 56 | 1.7 | 2.6 | 0.00 | 0.00 | 0.00 | 99 | 1033.5 |
| 20260506133423 | 51 | 51 | 1.7 | 1.7 | 0.00 | 0.00 | 0.00 | 99 | 1033.3 |
| 20260506132920 | 51 | 82 | 1.7 | 2.6 | 0.00 | 0.00 | 0.00 | 99 | 1033.2 |
| 20260506132417 | 51 | 58 | 1.7 | 2.6 | 0.00 | 0.00 | 0.00 | 99 | 1033.3 |
| 20260506131914 | 51 | 70 | 0.9 | 1.7 | 0.00 | 0.00 | 0.00 | 99 | 1033.2 |
| 20260506131410 | 51 | 36 | 1.7 | 1.7 | 0.00 | 0.00 | 0.00 | 99 | 1033.2 |
| 20260506130908 | 51 | 43 | 0.0 | 2.6 | 0.00 | 0.00 | 0.00 | 99 | 1033.1 |
| 20260506130404 | 51 | 97 | 1.7 | 2.6 | 0.00 | 0.00 | 0.00 | 99 | 1032.9 |
| 20260506125902 | 51 | 75 | 0.9 | 2.6 | 0.00 | 0.00 | 0.00 | 99 | 1033.0 |
| 20260506125400 | 51 | 125 | 1.7 | 2.6 | 0.00 | 0.00 | 0.00 | 99 | 1032.7 |
| 20260506124858 | 51 | 66 | 1.7 | 2.6 | 0.00 | 0.00 | 0.00 | 99 | 1032.8 |
| 20260506124355 | 51 | 81 | 1.7 | 2.6 | 0.00 | 0.00 | 0.00 | 99 | 1032.8 |
| 20260506123853 | 51 | 78 | 1.7 | 2.6 | 0.00 | 0.00 | 0.00 | 99 | 1032.8 |
| 20260506123351 | 51 | 65 | 0.0 | 2.6 | 0.00 | 0.00 | 0.00 | 99 | 1032.8 |
| 20260506122848 | 52 | 89 | 1.7 | 2.6 | 0.00 | 0.00 | 0.00 | 99 | 1032.7 |
| 20260506122344 | 52 | 61 | 1.7 | 1.7 | 0.00 | 0.00 | 0.00 | 99 | 1032.9 |
| 20260506121843 | 52 | 70 | 1.7 | 1.7 | 0.00 | 0.00 | 0.00 | 99 | 1032.7 |
| 20260506121340 | 52 | 84 | 1.7 | 2.6 | 0.00 | 0.00 | 0.00 | 99 | 1032.8 |
| 20260506120837 | 52 | 68 | 1.7 | 1.7 | 0.00 | 0.00 | 0.00 | 99 | 1032.7 |
| 20260506120334 | 52 | 55 | 1.7 | 2.6 | 0.00 | 0.00 | 0.00 | 99 | 1032.6 |
| 20260506115831 | 52 | 73 | 1.7 | 2.6 | 0.00 | 0.00 | 0.00 | 99 | 1032.7 |
| 20260506115330 | 52 | 93 | 1.7 | 3.5 | 0.00 | 0.00 | 0.00 | 99 | 1032.8 |
| 20260506114827 | 52 | 83 | 1.7 | 1.7 | 0.00 | 0.00 | 0.00 | 99 | 1032.8 |
| 20260506114325 | 52 | 86 | 1.7 | 2.6 | 0.00 | 0.00 | 0.00 | 99 | 1032.6 |
| 20260506113823 | 52 | 86 | 1.7 | 2.6 | 0.00 | 0.00 | 0.00 | 99 | 1032.7 |
| 20260506113320 | 52 | 84 | 1.7 | 1.7 | 0.00 | 0.00 | 0.00 | 99 | 1032.5 |
| 20260506112817 | 52 | 61 | 0.9 | 2.6 | 0.00 | 0.00 | 0.00 | 99 | 1032.5 |
| 20260506112314 | 51 | 75 | 1.7 | 2.6 | 0.00 | 0.00 | 0.00 | 99 | 1032.4 |
| 20260506111812 | 51 | 93 | 0.9 | 2.6 | 0.00 | 0.00 | 0.00 | 99 | 1032.3 |
| 20260506111309 | 51 | 84 | 2.6 | 2.6 | 0.00 | 0.00 | 0.00 | 99 | 1032.3 |
| 20260506110807 | 51 | 92 | 1.7 | 2.6 | 0.00 | 0.00 | 0.00 | 99 | 1032.3 |
| 20260506110304 | 51 | 96 | 1.7 | 1.7 | 0.00 | 0.00 | 0.00 | 99 | 1032.3 |
| 20260506105800 | 51 | 111 | 1.7 | 1.7 | 0.00 | 0.00 | 0.00 | 99 | 1032.2 |
| 20260506105257 | 51 | 80 | 2.6 | 2.6 | 0.00 | 0.00 | 0.00 | 99 | 1032.0 |
| 20260506104755 | 51 | 88 | 1.7 | 1.7 | 0.00 | 0.00 | 0.00 | 99 | 1031.8 |
| 20260506104252 | 51 | 93 | 1.7 | 2.6 | 0.00 | 0.00 | 0.00 | 99 | 1031.9 |
| 20260506103750 | 51 | 120 | 1.7 | 2.6 | 0.00 | 0.00 | 0.00 | 99 | 1031.9 |
| 20260506103247 | 51 | 94 | 1.7 | 1.7 | 0.00 | 0.00 | 0.00 | 99 | 1032.1 |
| 20260506102744 | 51 | 94 | 1.7 | 1.7 | 0.00 | 0.00 | 0.00 | 99 | 1031.9 |
| 20260506102242 | 51 | 70 | 0.9 | 1.7 | 0.00 | 0.00 | 0.00 | 99 | 1031.9 |
| 20260506101739 | 51 | 106 | 1.7 | 2.6 | 0.00 | 0.00 | 0.00 | 99 | 1031.8 |
| 20260506101235 | 51 | 91 | 0.9 | 1.7 | 0.00 | 0.00 | 0.00 | 99 | 1031.9 |
| 20260506100733 | 51 | 94 | 1.7 | 1.7 | 0.00 | 0.00 | 0.00 | 99 | 1031.8 |
| 20260506100231 | 51 | 86 | 1.7 | 1.7 | 0.00 | 0.00 | 0.00 | 99 | 1031.8 |
| 20260506095730 | 51 | 110 | 1.7 | 1.7 | 0.00 | 0.00 | 0.00 | 99 | 1031.5 |
| 20260506095226 | 50 | 88 | 0.9 | 1.7 | 0.00 | 0.00 | 0.00 | 99 | 1031.7 |
| 20260506094723 | 50 | 72 | 1.7 | 1.7 | 0.00 | 0.00 | 0.00 | 99 | 1031.6 |
| 20260506094221 | 50 | 70 | 1.7 | 1.7 | 0.00 | 0.00 | 0.00 | 99 | 1031.7 |
| 20260506093720 | 50 | 87 | 0.9 | 0.9 | 0.00 | 0.00 | 0.00 | 99 | 1031.5 |
| 20260506093216 | 50 | 89 | 0.0 | 1.7 | 0.00 | 0.00 | 0.00 | 99 | 1031.6 |
| 20260506092714 | 50 | 106 | 1.7 | 1.7 | 0.00 | 0.00 | 0.00 | 99 | 1031.6 |
| 20260506092211 | 49 | 124 | 0.9 | 1.7 | 0.00 | 0.00 | 0.00 | 99 | 1031.5 |
| 20260506091709 | 49 | 102 | 0.9 | 1.7 | 0.00 | 0.00 | 0.00 | 99 | 1031.5 |
| 20260506091206 | 49 | 107 | 1.7 | 1.7 | 0.00 | 0.00 | 0.00 | 99 | 1031.4 |
| 20260506090704 | 50 | 111 | 1.7 | 1.7 | 0.00 | 0.00 | 0.00 | 99 | 1031.4 |
| 20260506090200 | 50 | 114 | 1.7 | 1.7 | 0.00 | 0.00 | 0.00 | 99 | 1031.5 |
| 20260506085658 | 50 | 110 | 1.7 | 1.7 | 0.00 | 0.00 | 0.00 | 99 | 1031.5 |
| 20260506085153 | 50 | 98 | 1.7 | 1.7 | 0.00 | 0.00 | 0.00 | 99 | 1031.4 |
| 20260506084650 | 50 | 92 | 1.7 | 1.7 | 0.00 | 0.00 | 0.00 | 99 | 1031.5 |
| 20260506084147 | 50 | 93 | 1.7 | 2.6 | 0.00 | 0.00 | 0.00 | 99 | 1031.1 |
| 20260506083644 | 50 | 99 | 1.7 | 1.7 | 0.00 | 0.00 | 0.00 | 99 | 1031.3 |
| 20260506083142 | 50 | 87 | 1.7 | 1.7 | 0.00 | 0.00 | 0.00 | 99 | 1031.2 |
| 20260506082638 | 51 | 93 | 0.9 | 1.7 | 0.00 | 0.00 | 0.00 | 99 | 1031.3 |
| 20260506082134 | 51 | 93 | 1.7 | 1.7 | 0.00 | 0.00 | 0.00 | 99 | 1031.0 |
| 20260506081632 | 50 | 80 | 1.7 | 2.6 | 0.00 | 0.00 | 0.00 | 99 | 1031.0 |
| 20260506081129 | 50 | 92 | 1.7 | 1.7 | 0.00 | 0.00 | 0.00 | 99 | 1031.0 |
| 20260506080627 | 50 | 105 | 0.9 | 1.7 | 0.00 | 0.00 | 0.00 | 99 | 1030.8 |
| 20260506080123 | 50 | 87 | 0.0 | 1.7 | 0.00 | 0.00 | 0.00 | 99 | 1031.2 |
| 20260506073107 | 51 | 85 | 1.7 | 1.7 | 0.00 | 0.00 | 0.00 | 99 | 1030.9 |
| 20260506072604 | 51 | 95 | 1.7 | 1.7 | 0.00 | 0.00 | 0.00 | 99 | 1030.9 |
| 20260506072102 | 51 | 99 | 1.7 | 1.7 | 0.00 | 0.00 | 0.00 | 99 | 1030.7 |
| 20260506071559 | 51 | 106 | 1.7 | 1.7 | 0.00 | 0.00 | 0.00 | 99 | 1030.8 |
| 20260506071057 | 51 | 93 | 0.9 | 1.7 | 0.00 | 0.00 | 0.00 | 98 | 1030.9 |
| 20260506070554 | 51 | 113 | 1.7 | 2.6 | 0.00 | 0.00 | 0.00 | 98 | 1030.7 |
| 20260506062033 | 51 | 125 | 1.7 | 1.7 | 0.00 | 0.00 | 0.00 | 98 | 1030.4 |
| 20260506061529 | 51 | 92 | 1.7 | 1.7 | 0.00 | 0.00 | 0.00 | 98 | 1030.6 |
| 20260506061027 | 51 | 89 | 1.7 | 1.7 | 0.00 | 0.00 | 0.00 | 98 | 1030.7 |
| 20260506060525 | 51 | 76 | 1.7 | 1.7 | 0.00 | 0.00 | 0.00 | 98 | 1030.4 |
| 20260506050954 | 53 | 101 | 0.9 | 1.7 | 0.00 | 0.00 | 0.00 | 96 | 1030.0 |
| 20260506050452 | 53 | 104 | 1.7 | 1.7 | 0.00 | 0.00 | 0.00 | 96 | 1030.0 |
| 20260506044942 | 53 | 82 | 1.7 | 1.7 | 0.00 | 0.00 | 0.00 | 95 | 1030.1 |
| 20260506044440 | 53 | 116 | 0.9 | 1.7 | 0.00 | 0.00 | 0.00 | 95 | 1030.2 |
| 20260506043937 | 53 | 119 | 1.7 | 1.7 | 0.00 | 0.00 | 0.00 | 94 | 1029.8 |
| 20260506043434 | 54 | 95 | 0.9 | 0.9 | 0.00 | 0.00 | 0.00 | 94 | 1029.7 |
| 20260506042932 | 54 | 129 | 0.0 | 1.7 | 0.00 | 0.00 | 0.00 | 94 | 1029.6 |
| 20260506042431 | 54 | 135 | 0.0 | 1.7 | 0.00 | 0.00 | 0.00 | 93 | 1029.7 |
| 20260506041929 | 54 | 118 | 1.7 | 1.7 | 0.00 | 0.00 | 0.00 | 93 | 1029.6 |
| 20260506041426 | 54 | 115 | 1.7 | 1.7 | 0.00 | 0.00 | 0.00 | 93 | 1029.5 |
| 20260506040923 | 54 | 75 | 0.9 | 1.7 | 0.00 | 0.00 | 0.00 | 92 | 1029.7 |
| 20260506040421 | 54 | 60 | 1.7 | 1.7 | 0.00 | 0.00 | 0.00 | 92 | 1029.5 |
| 20260506035916 | 54 | 103 | 1.7 | 1.7 | 0.00 | 0.00 | 0.00 | 92 | 1029.4 |
| 20260506035414 | 54 | 59 | 0.9 | 1.7 | 0.00 | 0.00 | 0.00 | 91 | 1029.5 |
| 20260506034911 | 55 | 85 | 0.0 | 1.7 | 0.00 | 0.00 | 0.00 | 90 | 1029.5 |
| 20260506034408 | 55 | 80 | 0.0 | 0.9 | 0.00 | 0.00 | 0.00 | 90 | 1029.5 |
| 20260506033905 | 55 | 88 | 1.7 | 1.7 | 0.00 | 0.00 | 0.00 | 89 | 1029.4 |
| 20260506033402 | 55 | 83 | 0.9 | 0.9 | 0.00 | 0.00 | 0.00 | 89 | 1029.4 |
| 20260506032859 | 55 | 84 | 0.9 | 1.7 | 0.00 | 0.00 | 0.00 | 88 | 1029.2 |
| 20260506032356 | 56 | 67 | 0.9 | 1.7 | 0.00 | 0.00 | 0.00 | 87 | 1029.4 |
| 20260506031853 | 56 | 86 | 0.9 | 0.9 | 0.00 | 0.00 | 0.00 | 86 | 1029.2 |
| 20260506031350 | 57 | 123 | 0.9 | 0.9 | 0.00 | 0.00 | 0.00 | 86 | 1029.3 |
| 20260506030848 | 57 | 66 | 1.7 | 1.7 | 0.00 | 0.00 | 0.00 | 85 | 1029.1 |
| 20260506030346 | 57 | 100 | 0.0 | 1.7 | 0.00 | 0.00 | 0.00 | 84 | 1029.1 |
| 20260506025842 | 58 | 89 | 0.9 | 1.7 | 0.00 | 0.00 | 0.00 | 84 | 1029.3 |
| 20260506025338 | 58 | 77 | 0.9 | 1.7 | 0.00 | 0.00 | 0.00 | 83 | 1029.1 |
| 20260506024836 | 59 | 77 | 0.0 | 1.7 | 0.00 | 0.00 | 0.00 | 81 | 1029.2 |
| 20260506024332 | 59 | 78 | 0.0 | 1.7 | 0.00 | 0.00 | 0.00 | 80 | 1029.2 |
| 20260506023829 | 60 | 102 | 0.0 | 0.9 | 0.00 | 0.00 | 0.00 | 79 | 1029.1 |
| 20260506023325 | 60 | 79 | 1.7 | 1.7 | 0.00 | 0.00 | 0.00 | 77 | 1029.1 |
| 20260506022822 | 61 | 52 | 1.7 | 1.7 | 0.00 | 0.00 | 0.00 | 76 | 1029.3 |
| 20260506022320 | 61 | 51 | 1.7 | 1.7 | 0.00 | 0.00 | 0.00 | 74 | 1029.1 |
| 20260506021818 | 62 | 60 | 1.7 | 2.6 | 0.00 | 0.00 | 0.00 | 73 | 1029.1 |
| 20260506021314 | 62 | 82 | 1.7 | 3.5 | 0.00 | 0.00 | 0.00 | 71 | 1028.9 |
| 20260506020811 | 62 | 84 | 1.7 | 1.7 | 0.00 | 0.00 | 0.00 | 72 | 1029.1 |
| 20260506020309 | 62 | 128 | 0.9 | 0.9 | 0.00 | 0.00 | 0.00 | 70 | 1028.9 |
| 20260506015807 | 63 | 175 | 1.7 | 1.7 | 0.00 | 0.00 | 0.00 | 71 | 1029.2 |
| 20260506015306 | 64 | 318 | 2.6 | 2.6 | 0.00 | 0.00 | 0.00 | 67 | 1029.1 |
| 20260506014800 | 66 | 22 | 1.7 | 1.7 | 0.00 | 0.00 | 0.00 | 64 | 1028.9 |
| 20260506014257 | 66 | 58 | 0.9 | 1.7 | 0.00 | 0.00 | 0.00 | 64 | 1029.1 |
| 20260506013754 | 65 | 228 | 0.0 | 1.7 | 0.00 | 0.00 | 0.00 | 65 | 1029.3 |
| 20260506013251 | 64 | 114 | 1.7 | 4.3 | 0.00 | 0.00 | 0.00 | 66 | 1029.0 |
| 20260506012748 | 64 | 121 | 1.7 | 2.6 | 0.00 | 0.00 | 0.00 | 66 | 1029.1 |
| 20260506012245 | 64 | 132 | 2.6 | 3.5 | 0.00 | 0.00 | 0.00 | 67 | 1029.1 |
| 20260506011742 | 64 | 160 | 1.7 | 5.2 | 0.00 | 0.00 | 0.00 | 67 | 1029.2 |
| 20260506011238 | 65 | 103 | 1.7 | 2.6 | 0.00 | 0.00 | 0.00 | 66 | 1029.1 |
| 20260506010737 | 64 | 118 | 2.6 | 3.5 | 0.00 | 0.00 | 0.00 | 66 | 1029.1 |
| 20260506010234 | 64 | 147 | 2.6 | 4.3 | 0.00 | 0.00 | 0.00 | 68 | 1029.2 |
| 20260506005731 | 65 | 324 | 0.0 | 2.6 | 0.00 | 0.00 | 0.00 | 66 | 1029.3 |
| 20260506005227 | 66 | 137 | 3.5 | 5.2 | 0.00 | 0.00 | 0.00 | 64 | 1029.3 |
| 20260506004723 | 66 | 111 | 1.7 | 2.6 | 0.00 | 0.00 | 0.00 | 65 | 1029.3 |
| 20260506004221 | 65 | 357 | 0.9 | 2.6 | 0.00 | 0.00 | 0.00 | 67 | 1029.2 |
| 20260506003717 | 66 | 157 | 2.6 | 4.3 | 0.00 | 0.00 | 0.00 | 66 | 1029.1 |
| 20260506003214 | 65 | 280 | 1.7 | 3.5 | 0.00 | 0.00 | 0.00 | 66 | 1029.4 |
| 20260506002709 | 64 | 60 | 2.6 | 3.5 | 0.00 | 0.00 | 0.00 | 71 | 1029.4 |
| 20260506002206 | 63 | 9 | 0.9 | 3.5 | 0.00 | 0.00 | 0.00 | 70 | 1029.4 |
| 20260506001701 | 65 | 203 | 1.7 | 3.5 | 0.00 | 0.00 | 0.00 | 67 | 1029.5 |
| 20260506001159 | 64 | 0 | 0.9 | 2.6 | 0.00 | 0.00 | 0.00 | 68 | 1029.3 |
| 20260506000656 | 64 | 129 | 0.0 | 3.5 | 0.00 | 0.00 | 0.00 | 69 | 1029.4 |
| 20260506000154 | 62 | 184 | 0.0 | 1.7 | 0.00 | 0.00 | 0.00 | 72 | 1029.6 |
| 20260505235651 | 62 | 269 | 2.6 | 2.6 | 0.00 | 0.00 | 0.00 | 73 | 1029.6 |
| 20260505235149 | 61 | 166 | 2.6 | 6.1 | 0.00 | 0.00 | 0.00 | 74 | 1029.8 |
| 20260505234645 | 61 | 183 | 0.0 | 1.7 | 0.00 | 0.00 | 0.00 | 73 | 1029.7 |
| 20260505234142 | 61 | 221 | 1.7 | 3.5 | 0.00 | 0.00 | 0.00 | 75 | 1029.8 |
| 20260505233639 | 61 | 164 | 0.9 | 4.3 | 0.00 | 0.00 | 0.00 | 74 | 1030.0 |
| 20260505233137 | 61 | 0 | 0.0 | 3.5 | 0.00 | 0.00 | 0.00 | 76 | 1029.8 |
| 20260505232634 | 60 | 115 | 1.7 | 2.6 | 0.00 | 0.00 | 0.00 | 75 | 1030.0 |
| 20260505232132 | 60 | 3 | 0.0 | 2.6 | 0.00 | 0.00 | 0.00 | 76 | 1029.8 |
| 20260505231628 | 61 | 199 | 0.9 | 4.3 | 0.00 | 0.00 | 0.00 | 76 | 1030.1 |
| 20260505231127 | 60 | 116 | 2.6 | 3.5 | 0.00 | 0.00 | 0.00 | 76 | 1030.0 |
| 20260505230625 | 60 | 341 | 0.0 | 2.6 | 0.00 | 0.00 | 0.00 | 77 | 1030.0 |
| 20260505230121 | 60 | 11 | 2.6 | 2.6 | 0.00 | 0.00 | 0.00 | 76 | 1030.3 |
| 20260505225617 | 60 | 85 | 1.7 | 4.3 | 0.00 | 0.00 | 0.00 | 77 | 1030.1 |
| 20260505225114 | 60 | 125 | 0.9 | 3.5 | 0.00 | 0.00 | 0.00 | 75 | 1030.2 |
| 20260505224610 | 60 | 136 | 3.5 | 3.5 | 0.00 | 0.00 | 0.00 | 77 | 1030.1 |
| 20260505224108 | 60 | 80 | 2.6 | 3.5 | 0.00 | 0.00 | 0.00 | 76 | 1030.3 |
| 20260505223605 | 60 | 60 | 1.7 | 1.7 | 0.00 | 0.00 | 0.00 | 76 | 1030.3 |
| 20260505223101 | 60 | 115 | 0.9 | 1.7 | 0.00 | 0.00 | 0.00 | 76 | 1030.2 |
| 20260505222557 | 60 | 148 | 1.7 | 7.8 | 0.00 | 0.00 | 0.00 | 77 | 1030.2 |
| 20260505222054 | 60 | 234 | 0.9 | 2.6 | 0.00 | 0.00 | 0.00 | 77 | 1030.2 |